TimeEDT,TemperatureF,Dew PointF,Humidity,Sea Level PressureIn,VisibilityMPH,Wind Direction,Wind SpeedMPH,Gust SpeedMPH,PrecipitationIn,Events,Conditions,WindDirDegrees,DateUTC
12:53 AM,79.0,68.0,69,29.94,10.0,East,5.8,-,N/A,,Partly Cloudy,80,2013-09-30 04:53:00
1:53 AM,79.0,68.0,69,29.93,10.0,East,8.1,-,N/A,,Partly Cloudy,100,2013-09-30 05:53:00
2:53 AM,78.1,68.0,71,29.93,10.0,ESE,4.6,-,N/A,,Partly Cloudy,110,2013-09-30 06:53:00
3:53 AM,78.1,70.0,76,29.91,10.0,ESE,4.6,-,N/A,,Partly Cloudy,110,2013-09-30 07:53:00
4:53 AM,78.1,70.0,76,29.91,10.0,East,3.5,-,N/A,,Partly Cloudy,90,2013-09-30 08:53:00
5:53 AM,80.1,70.0,71,29.92,10.0,ESE,4.6,-,N/A,,Scattered Clouds,120,2013-09-30 09:53:00
6:53 AM,79.0,69.1,72,29.94,10.0,Calm,Calm,-,N/A,,Scattered Clouds,0,2013-09-30 10:53:00
7:53 AM,80.1,70.0,71,29.95,10.0,ESE,6.9,-,N/A,,Scattered Clouds,110,2013-09-30 11:53:00
8:53 AM,82.0,70.0,67,29.96,10.0,ESE,9.2,-,N/A,,Scattered Clouds,120,2013-09-30 12:53:00
9:53 AM,82.9,69.1,63,29.97,10.0,East,10.4,-,N/A,,Partly Cloudy,100,2013-09-30 13:53:00
10:53 AM,84.0,70.0,63,29.97,10.0,East,9.2,-,N/A,,Partly Cloudy,100,2013-09-30 14:53:00
11:53 AM,84.9,69.1,59,29.96,10.0,ESE,8.1,-,N/A,,Partly Cloudy,110,2013-09-30 15:53:00
12:53 PM,84.9,70.0,61,29.95,10.0,ESE,10.4,-,N/A,,Partly Cloudy,120,2013-09-30 16:53:00
1:53 PM,86.0,71.1,61,29.94,10.0,East,10.4,-,N/A,,Partly Cloudy,90,2013-09-30 17:53:00
2:53 PM,84.9,72.0,65,29.93,10.0,East,11.5,19.6,N/A,,Partly Cloudy,90,2013-09-30 18:53:00
3:53 PM,84.9,71.1,63,29.91,10.0,ENE,12.7,-,N/A,,Partly Cloudy,70,2013-09-30 19:53:00
4:53 PM,84.9,72.0,65,29.91,10.0,East,15.0,19.6,N/A,,Scattered Clouds,100,2013-09-30 20:53:00
5:53 PM,82.9,71.1,67,29.93,10.0,East,10.4,-,N/A,,Partly Cloudy,80,2013-09-30 21:53:00
6:53 PM,82.0,71.1,69,29.94,10.0,East,10.4,-,N/A,,Partly Cloudy,100,2013-09-30 22:53:00
7:53 PM,82.0,71.1,69,29.96,10.0,ESE,10.4,-,N/A,,Scattered Clouds,110,2013-09-30 23:53:00
8:53 PM,81.0,70.0,69,29.97,10.0,East,11.5,-,N/A,,Mostly Cloudy,100,2013-10-01 00:53:00
9:53 PM,82.0,70.0,67,29.99,10.0,East,9.2,-,N/A,,Mostly Cloudy,100,2013-10-01 01:53:00
10:53 PM,82.0,71.1,69,30.00,10.0,ESE,11.5,-,N/A,,Mostly Cloudy,110,2013-10-01 02:53:00
11:53 PM,82.0,71.1,69,29.99,10.0,ESE,13.8,-,N/A,,Mostly Cloudy,120,2013-10-01 03:53:00